createdAt,value
2018-06-21T00:00:55.869Z,5.10
2018-06-21T00:03:25.722Z,3.80
2018-06-21T00:05:55.650Z,4.73
2018-06-21T00:08:25.472Z,4.57
2018-06-21T00:10:55.344Z,4.37
2018-06-21T00:13:25.056Z,4.20
2018-06-21T00:15:54.724Z,4.97
2018-06-21T00:18:24.497Z,3.93
2018-06-21T00:20:54.355Z,5.07
2018-06-21T00:23:24.029Z,3.87
2018-06-21T00:25:54.322Z,4.73
2018-06-21T00:28:23.956Z,4.87
2018-06-21T00:30:53.669Z,5.00
2018-06-21T00:33:23.012Z,4.40
2018-06-21T00:35:52.738Z,4.83
2018-06-21T00:38:22.475Z,4.00
2018-06-21T00:40:52.158Z,4.33
2018-06-21T00:43:21.916Z,4.80
2018-06-21T00:45:51.605Z,5.47
2018-06-21T00:48:21.451Z,4.80
2018-06-21T00:50:50.830Z,5.77
2018-06-21T00:53:20.576Z,5.53
2018-06-21T00:56:00.901Z,5.10
2018-06-21T00:58:30.599Z,5.17
2018-06-21T01:01:00.338Z,6.20
2018-06-21T01:03:30.057Z,6.10
2018-06-21T01:05:59.494Z,4.90
2018-06-21T01:08:29.202Z,5.00
2018-06-21T01:10:59.027Z,5.63
2018-06-21T01:13:28.736Z,6.27
2018-06-21T01:15:58.434Z,5.63
2018-06-21T01:18:27.906Z,5.77
2018-06-21T01:20:58.396Z,4.90
2018-06-21T01:23:28.079Z,5.90
2018-06-21T01:25:57.994Z,6.33
2018-06-21T01:28:27.955Z,6.50
2018-06-21T01:30:57.857Z,5.77
2018-06-21T01:33:27.630Z,5.70
2018-06-21T01:35:57.342Z,5.67
2018-06-21T01:38:27.055Z,6.30
2018-06-21T01:40:56.761Z,6.00
2018-06-21T01:43:26.494Z,5.93
2018-06-21T01:45:56.218Z,6.07
2018-06-21T01:48:25.607Z,6.50
2018-06-21T01:50:55.277Z,6.67
2018-06-21T01:53:24.953Z,6.80
2018-06-21T01:55:55.297Z,6.60
2018-06-21T01:58:25.039Z,7.43
2018-06-21T02:00:54.730Z,7.23
2018-06-21T02:03:24.493Z,7.23
2018-06-21T02:05:54.259Z,7.20
2018-06-21T02:08:24.058Z,7.63
2018-06-21T02:10:53.769Z,7.17
2018-06-21T02:13:23.476Z,7.37
2018-06-21T02:15:53.196Z,6.77
2018-06-21T02:18:22.654Z,7.10
2018-06-21T02:20:52.663Z,6.63
2018-06-21T02:23:22.366Z,7.60
2018-06-21T02:25:53.638Z,8.23
2018-06-21T02:28:23.402Z,6.27
2018-06-21T02:30:53.489Z,8.13
2018-06-21T02:33:23.263Z,7.67
2018-06-21T02:35:53.138Z,8.37
2018-06-21T02:38:23.071Z,8.97
2018-06-21T02:40:52.458Z,7.97
2018-06-21T02:43:22.161Z,7.80
2018-06-21T02:45:51.983Z,8.47
2018-06-21T02:48:21.621Z,6.50
2018-06-21T02:50:51.427Z,7.83
2018-06-21T02:53:20.790Z,7.87
2018-06-21T02:55:50.522Z,7.23
2018-06-21T02:58:20.271Z,7.70
2018-06-21T03:00:50.073Z,8.87
2018-06-21T03:03:19.405Z,9.30
2018-06-21T03:05:49.185Z,7.90
2018-06-21T03:08:18.607Z,9.20
2018-06-21T03:10:48.093Z,9.60
2018-06-21T03:13:17.847Z,8.93
2018-06-21T03:15:47.648Z,9.00
2018-06-21T03:18:17.425Z,9.17
2018-06-21T03:20:47.121Z,9.63
2018-06-21T03:23:16.830Z,10.00
2018-06-21T03:25:46.588Z,10.13
2018-06-21T03:28:16.313Z,8.40
2018-06-21T03:30:45.673Z,9.30
2018-06-21T03:33:15.618Z,11.63
2018-06-21T03:35:45.331Z,9.73
2018-06-21T03:38:15.090Z,9.27
2018-06-21T03:40:44.838Z,8.87
2018-06-21T03:43:14.520Z,9.23
2018-06-21T03:45:45.345Z,8.57
2018-06-21T03:48:15.066Z,9.50
2018-06-21T03:50:44.799Z,10.70
2018-06-21T03:53:14.543Z,9.13
2018-06-21T03:55:44.207Z,9.80
2018-06-21T03:58:13.948Z,9.03
2018-06-21T04:00:43.757Z,9.60
2018-06-21T04:03:13.620Z,8.50
2018-06-21T04:05:43.340Z,9.10
2018-06-21T04:08:12.793Z,8.20
2018-06-21T04:10:42.512Z,7.90
2018-06-21T04:13:12.259Z,8.40
2018-06-21T04:15:41.982Z,8.43
2018-06-21T04:18:11.760Z,8.40
2018-06-21T04:20:41.431Z,8.30
2018-06-21T04:23:11.147Z,8.53
2018-06-21T04:25:40.925Z,7.30
2018-06-21T04:28:10.615Z,8.60
2018-06-21T04:30:40.322Z,7.83
2018-06-21T04:33:10.087Z,7.90
2018-06-21T04:35:39.445Z,8.07
2018-06-21T04:38:09.233Z,7.33
2018-06-21T04:40:38.981Z,6.03
2018-06-21T04:43:08.669Z,7.00
2018-06-21T04:45:38.314Z,6.30
2018-06-21T04:48:07.971Z,6.90
2018-06-21T04:50:37.698Z,6.20
2018-06-21T04:53:07.722Z,5.60
2018-06-21T04:55:37.464Z,6.73
2018-06-21T04:58:07.493Z,8.70
2018-06-21T05:00:37.204Z,8.87
2018-06-21T05:03:06.997Z,10.87
2018-06-21T05:05:36.834Z,10.00
2018-06-21T05:08:06.621Z,11.40
2018-06-21T05:10:36.424Z,11.67
2018-06-21T05:13:06.217Z,12.30
2018-06-21T05:15:35.675Z,13.43
2018-06-21T05:18:05.447Z,14.90
2018-06-21T05:20:34.921Z,16.67
2018-06-21T05:23:04.793Z,15.77
2018-06-21T05:25:34.526Z,16.90
2018-06-21T05:28:04.278Z,15.47
2018-06-21T05:30:33.922Z,16.53
2018-06-21T05:33:03.248Z,15.20
2018-06-21T05:35:33.308Z,14.70
2018-06-21T05:38:03.028Z,14.00
2018-06-21T05:40:38.873Z,13.53
2018-06-21T05:43:08.537Z,14.23
2018-06-21T05:45:38.179Z,11.70
2018-06-21T05:48:09.015Z,12.23
2018-06-21T05:50:38.774Z,12.30
2018-06-21T05:53:08.368Z,11.50
2018-06-21T05:55:39.050Z,10.00
2018-06-21T05:58:10.837Z,11.60
2018-06-21T06:00:42.985Z,12.70
2018-06-21T06:03:12.623Z,14.03
2018-06-21T06:05:42.310Z,13.77
2018-06-21T06:08:11.981Z,15.30
2018-06-21T06:10:41.618Z,13.97
2018-06-21T06:13:11.274Z,15.20
2018-06-21T06:15:40.901Z,15.20
2018-06-21T06:18:10.698Z,15.13
2018-06-21T06:20:40.352Z,15.80
2018-06-21T06:23:09.792Z,15.70
2018-06-21T06:25:39.460Z,19.43
2018-06-21T06:28:09.159Z,18.00
2018-06-21T06:30:38.800Z,18.97
2018-06-21T06:33:08.114Z,19.60
2018-06-21T06:35:37.915Z,19.97
2018-06-21T06:38:07.244Z,21.57
2018-06-21T06:40:36.960Z,24.70
2018-06-21T06:43:06.594Z,23.27
2018-06-21T06:45:36.288Z,22.50
2018-06-21T06:48:05.973Z,22.50
2018-06-21T06:50:36.019Z,21.70
2018-06-21T06:53:05.788Z,22.40
2018-06-21T06:55:39.814Z,23.23
2018-06-21T06:58:09.693Z,22.10
2018-06-21T07:00:39.373Z,19.50
2018-06-21T07:03:09.015Z,21.03
2018-06-21T07:05:38.706Z,20.37
2018-06-21T07:08:08.378Z,21.27
2018-06-21T07:10:37.990Z,19.80
2018-06-21T07:13:07.796Z,19.53
2018-06-21T07:15:37.450Z,20.47
2018-06-21T07:18:09.100Z,20.20
2018-06-21T07:20:38.716Z,18.93
2018-06-21T07:23:08.370Z,19.50
2018-06-21T07:25:38.010Z,18.70
2018-06-21T07:28:07.956Z,17.90
2018-06-21T07:30:37.569Z,18.07
2018-06-21T07:33:07.230Z,18.30
2018-06-21T07:35:39.865Z,17.70
2018-06-21T07:38:09.501Z,17.10
2018-06-21T07:40:39.189Z,16.83
2018-06-21T07:43:08.904Z,17.10
2018-06-21T07:45:41.653Z,15.60
2018-06-21T07:48:11.235Z,16.90
2018-06-21T07:50:40.889Z,15.07
2018-06-21T07:53:10.537Z,12.93
2018-06-21T07:55:40.242Z,10.83
2018-06-21T07:58:10.177Z,12.60
2018-06-21T08:00:39.857Z,12.30
2018-06-21T08:03:09.527Z,12.67
2018-06-21T08:05:39.213Z,11.40
2018-06-21T08:08:08.979Z,12.50
2018-06-21T08:10:38.312Z,11.50
2018-06-21T08:13:08.157Z,11.70
2018-06-21T08:15:37.816Z,10.47
2018-06-21T08:18:07.737Z,11.20
2018-06-21T08:20:37.144Z,11.00
2018-06-21T08:23:06.479Z,10.20
2018-06-21T08:25:36.154Z,9.90
2018-06-21T08:28:05.570Z,7.97
2018-06-21T08:30:35.326Z,7.70
2018-06-21T08:33:05.222Z,7.10
2018-06-21T08:35:34.914Z,5.17
2018-06-21T08:38:04.622Z,4.70
2018-06-21T08:40:33.923Z,4.00
2018-06-21T08:43:03.336Z,7.67
2018-06-21T08:45:33.412Z,3.60
2018-06-21T08:48:03.061Z,3.80
2018-06-21T08:50:32.481Z,3.30
2018-06-21T08:53:01.786Z,3.20
2018-06-21T08:55:31.466Z,3.27
2018-06-21T08:58:01.137Z,3.57
2018-06-21T09:00:30.791Z,4.63
2018-06-21T09:03:00.425Z,3.63
2018-06-21T09:05:30.077Z,4.07
2018-06-21T09:07:59.749Z,2.77
2018-06-21T09:10:29.075Z,3.20
2018-06-21T09:12:58.704Z,3.40
2018-06-21T09:15:28.632Z,3.60
2018-06-21T10:05:17.403Z,3.27
2018-06-21T10:07:47.044Z,2.37
2018-06-21T10:10:16.454Z,1.93
2018-06-21T10:12:46.394Z,2.17
2018-06-21T10:15:17.403Z,2.50
2018-06-21T10:17:47.006Z,2.20
2018-06-21T10:20:16.698Z,1.83
2018-06-21T10:22:46.506Z,2.20
2018-06-21T10:25:16.367Z,2.20
2018-06-21T10:27:46.037Z,2.47
2018-06-21T10:30:15.683Z,2.50
2018-06-21T10:32:45.306Z,2.50
2018-06-21T10:35:14.944Z,2.10
2018-06-21T10:37:44.696Z,2.50
2018-06-21T10:40:14.179Z,2.70
2018-06-21T10:42:43.820Z,3.30
2018-06-21T10:45:13.523Z,2.27
2018-06-21T10:47:43.183Z,2.30
2018-06-21T10:50:12.812Z,2.23
2018-06-21T10:52:42.530Z,3.47
2018-06-21T10:55:12.339Z,2.40
2018-06-21T10:57:41.978Z,2.50
2018-06-21T11:00:11.670Z,2.63
2018-06-21T11:02:41.304Z,2.47
2018-06-21T11:05:10.990Z,2.20
2018-06-21T11:07:40.740Z,1.60
2018-06-21T11:10:10.390Z,2.47
2018-06-21T11:12:40.074Z,2.63
2018-06-21T11:15:09.877Z,2.33
2018-06-21T11:17:39.526Z,2.40
2018-06-21T11:20:09.266Z,2.40
2018-06-21T11:22:38.937Z,2.27
2018-06-21T11:25:08.729Z,2.67
2018-06-21T11:27:38.576Z,1.73
2018-06-21T11:30:08.593Z,2.07
2018-06-21T11:32:38.252Z,1.87
2018-06-21T11:35:07.937Z,2.30
2018-06-21T11:37:37.641Z,2.47
2018-06-21T11:40:07.129Z,1.90
2018-06-21T11:42:36.917Z,1.90
2018-06-21T11:45:06.828Z,2.60
2018-06-21T11:47:36.553Z,2.40
2018-06-21T11:50:06.470Z,2.03
2018-06-21T11:52:36.126Z,1.40
2018-06-21T11:55:05.581Z,2.10
2018-06-21T11:57:35.197Z,2.17
2018-06-21T12:00:05.096Z,1.23
2018-06-21T12:02:35.102Z,1.60
2018-06-21T12:05:04.828Z,1.37
2018-06-21T12:07:34.474Z,1.73
2018-06-21T12:10:04.210Z,1.50
2018-06-21T12:12:33.871Z,1.43
2018-06-21T12:15:03.598Z,1.50
2018-06-21T12:17:33.202Z,1.73
2018-06-21T12:20:02.953Z,1.33
2018-06-21T12:22:32.819Z,1.50
2018-06-21T12:25:02.520Z,1.93
2018-06-21T12:27:32.367Z,1.70
2018-06-21T12:30:02.003Z,1.10
2018-06-21T12:32:31.660Z,2.27
2018-06-21T12:35:01.310Z,1.50
2018-06-21T12:37:30.939Z,1.40
2018-06-21T12:40:01.643Z,2.00
2018-06-21T12:42:31.291Z,1.40
2018-06-21T12:45:01.010Z,2.03
2018-06-21T12:47:30.749Z,1.50
2018-06-21T12:50:00.394Z,1.70
2018-06-21T12:52:30.149Z,1.80
2018-06-21T12:54:59.752Z,1.80
2018-06-21T12:57:29.381Z,1.77
2018-06-21T12:59:59.136Z,1.50
2018-06-21T13:02:28.778Z,2.20
2018-06-21T13:04:58.483Z,1.67
2018-06-21T13:07:28.174Z,1.30
2018-06-21T13:10:14.652Z,1.20
2018-06-21T13:13:06.358Z,1.83
2018-06-21T13:15:36.059Z,1.90
2018-06-21T13:18:05.895Z,2.20
2018-06-21T13:20:35.765Z,1.80
2018-06-21T13:23:05.763Z,1.87
2018-06-21T13:25:35.432Z,1.60
2018-06-21T13:28:05.673Z,1.90
2018-06-21T13:30:35.304Z,2.47
2018-06-21T13:33:05.174Z,1.53
2018-06-21T13:35:34.818Z,2.20
2018-06-21T13:38:04.644Z,2.03
2018-06-21T13:40:34.269Z,1.50
2018-06-21T13:43:04.061Z,1.47
2018-06-21T13:45:33.845Z,1.90
2018-06-21T13:48:03.498Z,1.90
2018-06-21T13:50:33.211Z,2.33
2018-06-21T13:53:02.850Z,2.10
2018-06-21T13:55:32.494Z,3.00
2018-06-21T13:58:02.185Z,1.30
2018-06-21T14:00:31.858Z,1.50
2018-06-21T14:03:01.492Z,1.73
2018-06-21T14:05:31.243Z,1.80
2018-06-21T14:08:01.115Z,2.47
2018-06-21T14:10:30.754Z,2.20
2018-06-21T14:13:00.408Z,1.60
2018-06-21T14:15:30.064Z,1.80
2018-06-21T14:17:59.760Z,2.47
2018-06-21T14:20:29.397Z,2.00
2018-06-21T14:22:59.817Z,2.17
2018-06-21T14:25:29.544Z,1.77
2018-06-21T14:27:59.194Z,2.70
2018-06-21T14:30:28.532Z,2.07
2018-06-21T14:32:58.160Z,2.80
2018-06-21T14:35:27.863Z,2.50
2018-06-21T14:37:57.544Z,2.10
2018-06-21T14:40:27.226Z,2.50
2018-06-21T14:42:57.911Z,1.40
2018-06-21T14:45:27.884Z,1.90
2018-06-21T14:47:57.559Z,2.50
2018-06-21T14:50:27.205Z,1.80
2018-06-21T14:52:56.869Z,2.50
2018-06-21T14:55:26.587Z,2.13
2018-06-21T14:57:56.236Z,1.80
2018-06-21T15:00:25.926Z,2.23
2018-06-21T15:02:55.535Z,2.80
2018-06-21T15:05:25.405Z,1.70
2018-06-21T15:07:55.335Z,2.90
2018-06-21T15:10:24.713Z,2.80
2018-06-21T15:12:54.470Z,2.10
2018-06-21T15:15:24.149Z,2.20
2018-06-21T15:17:53.805Z,1.80
2018-06-21T15:20:23.467Z,1.77
2018-06-21T15:22:53.350Z,2.37
2018-06-21T15:25:23.016Z,3.03
2018-06-21T15:27:52.412Z,2.50
2018-06-21T15:30:22.105Z,1.87
2018-06-21T15:32:51.957Z,1.80
2018-06-21T15:35:21.731Z,1.63
2018-06-21T15:37:51.584Z,2.10
2018-06-21T15:40:21.256Z,1.70
2018-06-21T15:42:50.891Z,2.43
2018-06-21T15:45:20.886Z,1.73
2018-06-21T15:47:50.741Z,2.00
2018-06-21T15:50:20.485Z,1.80
2018-06-21T15:52:50.285Z,2.20
2018-06-21T15:55:19.628Z,2.20
2018-06-21T15:57:49.490Z,1.80
2018-06-21T16:00:19.212Z,2.50
2018-06-21T16:02:48.509Z,1.37
2018-06-21T16:05:18.433Z,1.60
2018-06-21T16:07:48.209Z,1.43
2018-06-21T16:10:18.045Z,1.90
2018-06-21T16:12:47.828Z,2.00
2018-06-21T16:15:17.465Z,2.10
2018-06-21T16:17:47.202Z,2.20
2018-06-21T16:20:16.557Z,2.10
2018-06-21T16:22:46.334Z,1.97
2018-06-21T16:25:16.040Z,2.47
2018-06-21T16:27:45.445Z,1.47
2018-06-21T16:30:14.833Z,1.63
2018-06-21T16:32:44.564Z,2.03
2018-06-21T16:35:14.250Z,1.60
2018-06-21T16:37:43.990Z,1.70
2018-06-21T16:40:13.431Z,1.63
2018-06-21T16:42:43.090Z,1.53
2018-06-21T16:45:12.846Z,1.50
2018-06-21T16:47:42.612Z,1.70
2018-06-21T16:50:12.465Z,2.17
2018-06-21T16:52:42.198Z,1.70
2018-06-21T16:55:11.867Z,1.90
2018-06-21T16:57:41.685Z,2.10
2018-06-21T17:00:11.442Z,1.53
2018-06-21T17:02:41.115Z,1.90
2018-06-21T17:05:10.869Z,1.93
2018-06-21T17:07:40.532Z,1.50
2018-06-21T17:10:10.242Z,2.00
2018-06-21T17:12:39.954Z,1.93
2018-06-21T17:15:09.803Z,1.87
2018-06-21T17:17:39.138Z,1.80
2018-06-21T17:20:08.842Z,2.50
2018-06-21T17:22:38.825Z,1.40
2018-06-21T17:25:08.599Z,1.87
2018-06-21T17:27:38.438Z,1.40
2018-06-21T17:30:08.185Z,2.00
2018-06-21T17:32:37.511Z,2.30
2018-06-21T17:35:07.216Z,1.40
2018-06-21T17:37:36.884Z,2.00
2018-06-21T17:40:06.705Z,2.80
2018-06-21T17:42:36.472Z,1.60
2018-06-21T17:45:06.223Z,1.37
2018-06-21T17:47:35.951Z,1.97
2018-06-21T17:50:06.083Z,1.87
2018-06-21T17:52:35.428Z,1.43
2018-06-21T17:55:05.151Z,1.90
2018-06-21T17:57:34.829Z,2.63
2018-06-21T18:00:04.328Z,2.33
2018-06-21T18:02:34.084Z,1.60
2018-06-21T18:05:04.700Z,1.53
2018-06-21T18:07:34.482Z,1.80
2018-06-21T18:10:04.321Z,1.63
2018-06-21T18:12:34.021Z,1.40
2018-06-21T18:15:03.566Z,1.70
2018-06-21T18:17:33.381Z,1.73
2018-06-21T18:20:03.336Z,1.50
2018-06-21T18:22:33.034Z,1.80
2018-06-21T18:25:02.862Z,1.50
2018-06-21T18:27:32.662Z,2.40
2018-06-21T18:30:02.415Z,2.13
2018-06-21T18:32:33.104Z,3.30
2018-06-21T18:35:02.917Z,2.27
2018-06-21T18:37:32.702Z,1.93
2018-06-21T18:40:02.131Z,7.80
2018-06-21T18:42:31.794Z,1.97
2018-06-21T18:45:01.528Z,2.73
2018-06-21T18:47:30.881Z,1.57
2018-06-21T18:50:00.654Z,2.30
2018-06-21T18:52:30.010Z,1.23
2018-06-21T18:54:59.665Z,3.50
2018-06-21T18:57:29.002Z,1.73
2018-06-21T18:59:58.758Z,2.20
2018-06-21T19:02:28.704Z,2.00
2018-06-21T19:04:58.102Z,2.67
2018-06-21T19:07:31.208Z,1.93
2018-06-21T19:10:06.026Z,1.70
2018-06-21T19:12:35.618Z,2.53
2018-06-21T19:15:05.482Z,2.40
2018-06-21T19:17:35.221Z,2.60
2018-06-21T19:20:05.088Z,4.17
2018-06-21T19:22:34.768Z,2.17
2018-06-21T19:25:04.589Z,2.27
2018-06-21T19:27:34.289Z,1.53
2018-06-21T19:30:04.139Z,1.70
2018-06-21T19:32:33.894Z,2.00
2018-06-21T19:35:03.629Z,1.80
2018-06-21T19:37:33.388Z,2.23
2018-06-21T19:40:03.080Z,2.50
2018-06-21T19:42:32.848Z,3.10
2018-06-21T19:45:02.573Z,2.70
2018-06-21T19:47:32.386Z,2.20
2018-06-21T19:50:02.275Z,3.17
2018-06-21T19:52:31.929Z,2.57
2018-06-21T19:55:01.627Z,2.87
2018-06-21T19:57:31.301Z,2.63
2018-06-21T20:00:00.639Z,2.40
2018-06-21T20:03:00.885Z,2.10
2018-06-21T20:05:30.875Z,2.10
2018-06-21T20:08:00.610Z,2.23
2018-06-21T20:10:30.335Z,2.07
2018-06-21T20:13:00.081Z,2.27
2018-06-21T20:15:31.110Z,2.37
2018-06-21T20:18:00.781Z,2.87
2018-06-21T20:20:34.405Z,3.27
2018-06-21T20:23:04.110Z,3.10
2018-06-21T20:25:33.874Z,2.43
2018-06-21T20:28:03.570Z,2.33
2018-06-21T20:30:32.959Z,3.03
2018-06-21T20:33:02.650Z,2.60
2018-06-21T20:35:32.347Z,2.40
2018-06-21T20:38:02.219Z,2.77
2018-06-21T20:40:31.628Z,3.17
2018-06-21T20:43:01.025Z,2.30
2018-06-21T20:45:30.926Z,2.30
2018-06-21T20:48:00.761Z,2.73
2018-06-21T20:50:30.449Z,2.60
2018-06-21T20:53:00.155Z,3.33
2018-06-21T20:55:29.851Z,2.60
2018-06-21T20:57:59.546Z,2.80
2018-06-21T21:00:29.261Z,3.90
2018-06-21T21:02:58.872Z,2.80
2018-06-21T21:05:29.810Z,5.50
2018-06-21T21:07:59.681Z,2.67
2018-06-21T21:10:29.322Z,2.43
2018-06-21T21:12:58.605Z,2.27
2018-06-21T21:15:28.280Z,2.30
2018-06-21T21:17:57.915Z,2.40
2018-06-21T21:20:27.645Z,2.30
2018-06-21T21:22:57.281Z,2.77
2018-06-21T21:25:26.906Z,2.60
2018-06-21T21:27:56.566Z,1.90
2018-06-21T21:30:26.193Z,2.23
2018-06-21T21:32:55.493Z,1.87
2018-06-21T21:35:25.344Z,2.37
2018-06-21T21:37:54.974Z,2.13
2018-06-21T21:40:24.725Z,2.20
2018-06-21T21:42:54.464Z,1.93
2018-06-21T21:45:24.134Z,1.87
2018-06-21T21:47:53.796Z,2.20
2018-06-21T21:50:23.440Z,2.30
2018-06-21T21:52:53.062Z,2.33
2018-06-21T21:55:22.789Z,2.10
2018-06-21T21:57:52.409Z,2.33
2018-06-21T22:00:59.172Z,2.47
2018-06-21T22:03:28.784Z,2.20
2018-06-21T22:05:58.504Z,3.20
2018-06-21T22:08:28.138Z,1.83
2018-06-21T22:10:57.791Z,2.00
2018-06-21T22:13:27.449Z,2.50
2018-06-21T22:15:57.104Z,1.77
2018-06-21T22:18:26.819Z,2.33
2018-06-21T22:20:56.473Z,2.50
2018-06-21T22:23:26.217Z,2.00
2018-06-21T22:25:55.843Z,2.37
2018-06-21T22:28:25.541Z,2.33
2018-06-21T22:30:55.314Z,2.90
2018-06-21T22:33:25.065Z,2.63
2018-06-21T22:35:54.519Z,2.10
2018-06-21T22:38:24.159Z,2.00
2018-06-21T22:40:53.802Z,1.90
2018-06-21T22:43:24.047Z,2.33
2018-06-21T22:45:53.765Z,2.40
2018-06-21T22:48:23.510Z,3.40
2018-06-21T22:50:53.355Z,2.47
2018-06-21T22:53:23.166Z,2.73
2018-06-21T22:55:53.196Z,2.13
2018-06-21T22:58:22.800Z,2.40
2018-06-21T23:00:52.380Z,2.60
2018-06-21T23:03:22.166Z,2.30
2018-06-21T23:05:52.094Z,2.10
2018-06-21T23:08:22.028Z,1.93
2018-06-21T23:10:52.193Z,2.53
2018-06-21T23:13:21.711Z,2.60
2018-06-21T23:15:51.401Z,2.83
2018-06-21T23:18:31.837Z,2.83
2018-06-21T23:21:01.521Z,2.60
2018-06-21T23:23:31.559Z,2.42
2018-06-21T23:26:01.226Z,2.00
2018-06-21T23:28:30.858Z,2.80
2018-06-21T23:31:00.480Z,2.30
2018-06-21T23:33:30.263Z,2.22
2018-06-21T23:36:00.615Z,2.55
2018-06-21T23:38:30.357Z,2.12
2018-06-21T23:41:00.135Z,2.20
2018-06-21T23:43:29.747Z,2.87
2018-06-21T23:45:59.378Z,2.40
2018-06-21T23:48:29.088Z,2.33
2018-06-21T23:50:58.718Z,2.20
2018-06-21T23:53:28.405Z,2.02
2018-06-21T23:55:58.092Z,3.10
2018-06-21T23:58:27.817Z,2.20
